Charleston, SC (29412)

6:43 AM EDT on May 22, 2015 (GMT -0400)
Seaside Plantation | | Change Station
CLOSE
Current Station
Personal Weather Station
Location: James Island, SC
Elevation: 35 ft
Nearby Weather Stations

Elev 35 ft 32.71 °N, 79.95 °W | Updated 9 seconds ago

Clear
Clear
69.1 °F
Feels Like 69.1 °F
N
1.0
Wind Variable Wind from NW
Gusts 3.0 mph

Today
High -- | Low -- °F
--% Chance of Precip.
Yesterday
High -- | Low -- °F
Precip. -- in
6:16 AM 8:16 PM
Waxing Crescent, 20% visible
Pressure 30.05 in
Visibility 10.0 miles
Clouds Scattered Clouds 2000 ft
Mostly Cloudy 3300 ft
Dew Point 59 °F
Humidity 71%
Rainfall 0.00 in
Snow Depth Not available.
UV 0 out of 12
Pollen 6.70 out of 12
Air Quality Not available.
Flu Activity Local Activity
METAR KJZI 221035Z AUTO 04011G16KT 10SM SCT020 BKN033 21/17 A3005 RMK A02 P000

More Conditions Fewer Conditions

Pressure 30.05 in
Visibility 10.0 miles
Clouds Scattered Clouds 2000 ft
Mostly Cloudy 3300 ft
Dew Point 59 °F
Humidity 71%
Rainfall 0.00 in
Snow Depth Not available.
UV 0 out of 12
Pollen 6.70 out of 12
Air Quality Not available.
Flu Activity Local Activity
METAR KJZI 221035Z AUTO 04011G16KT 10SM SCT020 BKN033 21/17 A3005 RMK A02 P000

More Conditions Fewer Conditions

10-Day Weather Forecast

Almanac

Astronomy

May. 22, 2015 Rise Set
Actual Time
Civil Twilight
Nautical Twilight
Astronomical Twilight
Moon
Length of Visible Light
Length of Day
Tomorrow will be .
, % of the Moon is Illuminated

Today's Extremes

State Highs State Lows

Community

WunderPhotos

Upload Photos

1,823,200 photos uploaded!

WunderBlogs® & News

Nearby

Air Quality

  Air Quality AQ Index Pollutant
Not available.

Snow Depth

Station Depth Elevation

Earthquake Activity

City Distance Mag. Time & Date
Minimum magnitude displayed is 2.5.

Coastal Water Temperatures

Place Temperature

Stations

Nearby Weather Stations

Station Location Temp. Windchill Dew Point Humidity Wind Precip. Elev Updated Type